Newton, Georgia
Current Conditions -  °F | °C
As of 6:53 AM on Sunday 23 Nov 2014 (Local Time) from KABY Reporting Station
Overcast Overcast  
Wind Chill: 62°   Ceiling: 800
Heat Index: 62°   Visibility: 7mi
Dew Point: 60°   Wind: 9mph
Humidity: 93%   Direction: 90°E
Pressure: 29.97"   Gusts: NA
Location:  31.31°N, 84.34°W
Report Text: KABY 231153Z 09008KT 7SM OVC008 17/16 A2997 RMK AO2 CIG 006V013 SLP147 P0002 60127 70196 T01670156 10167 20156 56018
Loading
Personal Weather Stations






























Interactive Weather Map New forecast layout! Learn more

10-Day Weather Forecast

Advertisements
Track Severe Weather on mobile